Latest Weather Observations for Edinburgh

IDS60901

Issued at 9:01 pm CDT Friday 6 December 2019 (issued every 10 minutes, with the page automatically refreshed every 10 minutes)

About weather observations | Map of Adelaide area stations | Latest observations for Adelaide area | Other Formats
Station Details ID: 023083 Name: EDINBURGH RAAF Lat: -34.71 Lon: 138.62 Height: 16.54 m
Data from the previous 72 hours. | See also: Recent months at Edinburgh
Date/Time
CDT
Temp
°C
App
Temp
°C
Dew
Point
°C
Rel
Hum
%
Delta-T
°C
Wind Press
QNH
hPa
Press
MSL
hPa
Rain since
9am
mm
Dir  Spd
km/h
Gust
km/h
Spd
kts
Gust
kts
06/09:00pm 17.0 12.6 8.9 59 4.2 SSW 22 28 12 15 1017.2 1017.1 0.0
06/08:30pm 17.4 12.3 9.3 59 4.2 SSW 26 32 14 17 1017.2 1017.1 0.0
06/08:00pm 17.9 12.7 9.0 56 4.6 SSW 26 32 14 17 1016.9 1016.8 0.0
06/07:30pm 18.8 13.1 8.5 51 5.3 SSW 28 35 15 19 1016.4 1016.3 0.0
06/07:00pm 19.7 13.6 8.1 47 6.0 SSW 30 37 16 20 1016.3 1016.2 0.0
06/06:30pm 20.2 13.3 8.8 48 6.0 SW 35 43 19 23 1016.2 1016.1 0.0
06/06:00pm 21.6 15.4 9.5 46 6.5 SSW 32 39 17 21 1015.9 1015.8 0.0
06/05:30pm 21.6 15.7 9.2 45 6.6 SW 30 35 16 19 1015.5 1015.4 0.0
06/05:00pm 21.3 16.1 10.2 49 6.0 SW 28 37 15 20 1015.5 1015.4 0.0
06/04:30pm 21.4 16.1 9.9 48 6.2 WSW 28 35 15 19 1015.5 1015.4 0.0
06/04:00pm 21.6 16.5 10.7 50 6.0 SW 28 39 15 21 1015.6 1015.5 0.0
06/03:30pm 21.0 15.9 10.5 51 5.7 WSW 28 35 15 19 1015.8 1015.7 0.0
06/03:00pm 20.7 14.9 9.6 49 5.9 WSW 30 41 16 22 1016.1 1016.0 0.0
06/02:30pm 20.7 15.0 9.9 50 5.8 WSW 30 39 16 21 1016.1 1016.0 0.0
06/02:00pm 20.4 15.4 9.6 50 5.8 SW 26 33 14 18 1016.3 1016.2 0.0
06/01:30pm 20.4 16.0 9.0 48 6.0 SW 22 30 12 16 1016.5 1016.4 0.0
06/01:00pm 20.4 14.9 9.3 49 5.9 SW 28 37 15 20 1016.9 1016.8 0.0
06/12:30pm 20.2 15.4 8.8 48 6.0 SW 24 32 13 17 1016.9 1016.8 0.0
06/12:00pm 19.7 14.9 8.7 49 5.7 SW 24 35 13 19 1017.0 1016.9 0.0
06/11:30am 19.1 14.9 8.4 50 5.5 SW 20 30 11 16 1016.7 1016.6 0.0
06/11:00am 18.7 15.7 7.8 49 5.6 SSW 13 26 7 14 1017.3 1017.2 0.0
06/10:30am 18.4 13.7 7.8 50 5.4 SW 22 30 12 16 1017.5 1017.4 0.0
06/10:00am 17.1 13.3 7.7 54 4.7 SSW 17 26 9 14 1017.4 1017.3 0.0
06/09:30am 16.9 13.6 8.1 56 4.5 S 15 22 8 12 1017.1 1017.0 0.0
06/09:00am 15.3 11.2 7.8 61 3.7 S 19 28 10 15 1017.0 1016.9 0.0
06/08:30am 15.3 11.2 8.5 64 3.4 SSW 20 28 11 15 1016.8 1016.7 0.0
06/08:00am 14.2 10.5 7.9 66 3.1 S 17 24 9 13 1016.2 1016.1 0.0
06/07:30am 13.8 10.9 8.2 69 2.8 S 13 20 7 11 1016.0 1015.9 0.0
06/07:00am 13.0 10.1 8.1 72 2.4 S 13 19 7 10 1015.4 1015.3 0.0
06/06:30am 12.4 10.3 8.3 76 2.0 S 9 13 5 7 1015.1 1015.0 0.0
06/06:00am 11.8 9.3 8.3 79 1.7 SSW 11 13 6 7 1014.9 1014.8 0.0
06/05:30am 11.8 9.4 8.5 80 1.6 SSW 11 13 6 7 1014.4 1014.3 0.0
06/05:00am 11.8 9.4 8.5 80 1.6 SW 11 13 6 7 1014.1 1014.0 0.0
06/04:30am 12.1 10.1 8.6 79 1.7 SW 9 11 5 6 1014.0 1013.9 0.0
06/04:00am 12.6 10.7 9.1 79 1.8 SSW 9 11 5 6 1014.0 1013.9 0.0
06/03:30am 13.0 11.2 9.4 79 1.8 SSW 9 13 5 7 1014.1 1014.0 0.0
06/03:00am 13.5 11.8 9.9 79 1.9 SSW 9 11 5 6 1013.8 1013.7 0.0
06/02:30am 14.1 13.1 10.3 78 2.0 S 6 7 3 4 1013.9 1013.8 0.0
06/02:00am 14.2 13.2 10.4 78 2.0 SSE 6 7 3 4 1013.9 1013.8 0.0
06/01:30am 14.3 13.2 10.5 78 2.0 SSW 7 9 4 5 1013.9 1013.8 0.0
06/01:00am 14.5 14.3 10.3 76 2.2 SSW 2 6 1 3 1014.0 1013.9 0.0
06/12:30am 15.2 13.8 10.8 75 2.3 S 9 11 5 6 1014.2 1014.1 0.0
06/12:00am 16.1 15.2 11.5 74 2.5 SE 7 9 4 5 1014.0 1013.9 0.0
 
Date/Time
CDT
Temp
°C
App
Temp
°C
Dew
Point
°C
Rel
Hum
%
Delta-T
°C
Wind Press
QNH
hPa
Press
MSL
hPa
Rain since
9am
mm
Dir  Spd
km/h
Gust
km/h
Spd
kts
Gust
kts
05/11:30pm 16.4 15.5 11.3 72 2.7 SSW 7 11 4 6 1014.1 1014.0 0.0
05/11:00pm 16.8 14.7 11.3 70 3.0 SSW 13 17 7 9 1014.1 1014.0 0.0
05/10:30pm 17.1 14.0 11.6 70 3.0 SW 19 22 10 12 1014.0 1013.9 0.0
05/10:00pm 17.5 15.1 12.6 73 2.7 SW 17 20 9 11 1013.8 1013.7 0.0
05/09:30pm 17.8 15.0 12.5 71 2.9 SW 19 24 10 13 1013.6 1013.5 0.0
05/09:00pm 17.8 15.9 13.1 74 2.6 SSW 15 17 8 9 1013.4 1013.3 0.0
05/08:30pm 18.2 16.3 12.9 71 3.0 SW 15 19 8 10 1013.3 1013.2 0.0
05/08:00pm 19.0 16.0 12.5 66 3.6 SW 20 26 11 14 1013.0 1012.9 0.0
05/07:30pm 20.2 17.1 12.2 60 4.5 SW 20 24 11 13 1013.1 1013.0 0.0
05/07:00pm 21.3 18.0 11.6 54 5.4 SW 20 26 11 14 1012.7 1012.6 0.0
05/06:30pm 22.1 18.2 9.6 45 6.7 SSW 20 28 11 15 1012.7 1012.6 0.0
05/06:00pm 22.2 17.3 8.3 41 7.3 SW 24 30 13 16 1012.7 1012.6 0.0
05/05:30pm 22.6 17.8 9.0 42 7.3 SW 24 32 13 17 1012.8 1012.7 0.0
05/05:00pm 23.4 18.9 8.7 39 7.9 SW 22 33 12 18 1013.0 1012.9 0.0
05/04:30pm 24.3 19.4 9.8 40 7.9 SW 26 33 14 18 1013.0 1012.9 0.0
05/04:00pm 24.9 21.1 11.1 42 7.8 WSW 22 32 12 17 1013.0 1012.9 0.0
05/03:30pm 24.7 21.3 10.6 41 7.8 SW 19 26 10 14 1013.1 1013.0 0.0
05/03:00pm 24.4 20.6 9.2 38 8.2 WSW 19 26 10 14 1013.3 1013.2 0.0
05/02:30pm 24.1 20.3 7.7 35 8.6 WSW 17 24 9 13 1013.4 1013.3 0.0
05/02:00pm 24.5 20.1 7.2 33 9.1 WSW 20 30 11 16 1013.7 1013.6 0.0
05/01:30pm 24.5 19.4 4.3 27 10.0 WSW 20 30 11 16 1013.9 1013.8 0.0
05/01:00pm 24.6 19.6 3.8 26 10.2 WSW 19 32 10 17 1014.0 1013.9 0.0
05/12:30pm 23.8 19.3 7.0 34 8.7 WSW 20 32 11 17 1014.1 1014.0 0.0
05/12:00pm 22.7 19.3 9.1 42 7.3 W 17 26 9 14 1014.4 1014.3 0.0
05/11:30am 21.7 18.2 10.2 48 6.3 WSW 19 24 10 13 1014.4 1014.3 0.0
05/11:00am 21.5 18.7 11.2 52 5.7 WSW 17 24 9 13 1014.5 1014.4 0.0
05/10:30am 20.9 17.8 11.5 55 5.2 WSW 19 26 10 14 1014.4 1014.3 0.0
05/10:00am 19.7 16.9 11.5 59 4.5 SW 17 22 9 12 1014.4 1014.3 0.0
05/09:30am 18.4 15.8 11.9 66 3.6 SW 17 20 9 11 1014.4 1014.3 0.0
05/09:00am 18.0 15.8 12.0 68 3.3 SW 15 20 8 11 1014.5 1014.4 0.0
05/08:30am 16.8 15.6 11.5 71 2.9 SSW 9 15 5 8 1014.7 1014.6 0.0
05/08:00am 15.6 14.5 9.9 69 3.0 ENE 6 7 3 4 1014.4 1014.3 0.0
05/07:30am 14.1 11.8 8.9 71 2.6 NE 11 13 6 7 1014.0 1013.9 0.0
05/07:00am 12.5 10.4 8.4 76 2.0 NNE 9 11 5 6 1014.0 1013.9 0.0
05/06:30am 11.6 9.9 8.3 80 1.6 NE 7 9 4 5 1013.8 1013.7 0.0
05/06:00am 12.0 10.3 8.3 78 1.8 NE 7 9 4 5 1013.6 1013.5 0.0
05/05:49am 12.0 10.5 8.3 78 1.8 NE 6 9 3 5 1013.6 1013.5 0.0
05/05:30am 12.4 10.7 8.3 76 2.0 NE 7 11 4 6 1013.4 1013.3 0.0
05/05:00am 12.3 10.7 8.6 78 1.8 ENE 7 9 4 5 1013.2 1013.1 0.0
05/04:30am 12.0 9.2 8.5 79 1.7 NE 13 15 7 8 1013.1 1013.0 0.0
05/04:00am 12.1 10.2 8.9 81 1.6 NE 9 13 5 7 1013.2 1013.1 0.0
05/03:51am 12.1 10.2 9.1 82 1.5 NNE 9 11 5 6 1013.3 1013.2 0.0
05/03:30am 11.9 10.0 9.1 83 1.4 NNE 9 13 5 7 1013.3 1013.2 0.0
05/03:00am 11.9 9.6 9.1 83 1.4 NE 11 13 6 7 1013.6 1013.5 0.0
05/02:30am 11.8 9.6 9.2 84 1.3 NE 11 13 6 7 1013.9 1013.8 0.0
05/02:00am 12.5 10.8 9.7 83 1.4 NE 9 11 5 6 1014.3 1014.2 0.0
05/01:30am 13.2 12.9 10.2 82 1.6 ENE 2 9 1 5 1014.5 1014.4 0.0
05/01:00am 14.7 13.8 10.7 77 2.1 SSE 6 7 3 4 1014.7 1014.6 0.0
05/12:30am 14.0 12.7 9.2 73 2.4 SSW 6 7 3 4 1015.0 1014.9 0.0
05/12:00am 15.6 14.5 10.8 73 2.5 S 7 9 4 5 1015.1 1015.0 0.0
 
Date/Time
CDT
Temp
°C
App
Temp
°C
Dew
Point
°C
Rel
Hum
%
Delta-T
°C
Wind Press
QNH
hPa
Press
MSL
hPa
Rain since
9am
mm
Dir  Spd
km/h
Gust
km/h
Spd
kts
Gust
kts
04/11:30pm 15.5 14.0 10.7 73 2.5 SSW 9 11 5 6 1015.3 1015.2 0.0
04/11:00pm 15.9 14.7 10.4 70 2.9 SW 7 9 4 5 1015.3 1015.2 0.0
04/10:30pm 16.3 14.9 10.8 70 2.9 SW 9 9 5 5 1015.5 1015.4 0.0
04/10:00pm 16.6 15.5 10.5 67 3.2 SW 7 7 4 4 1015.4 1015.3 0.0
04/09:30pm 16.6 15.4 10.2 66 3.4 WSW 7 9 4 5 1015.5 1015.4 0.0
04/09:00pm 17.8 16.7 10.7 63 3.8 WSW 7 9 4 5 1015.3 1015.2 0.0
04/08:30pm 18.6 16.8 10.9 61 4.2 WSW 11 13 6 7 1015.3 1015.2 0.0
04/08:00pm 19.3 17.8 10.6 57 4.7 SSW 9 15 5 8 1015.4 1015.3 0.0
04/07:30pm 19.9 17.4 10.9 56 4.9 SW 15 19 8 10 1015.6 1015.5 0.0
04/07:00pm 20.8 18.0 10.0 50 5.8 WSW 15 20 8 11 1015.5 1015.4 0.0
04/06:30pm 21.6 18.5 8.8 44 6.8 SW 15 19 8 10 1015.2 1015.1 0.0
04/06:00pm 21.8 18.5 9.7 46 6.5 WSW 17 22 9 12 1015.4 1015.3 0.0
04/05:30pm 22.3 18.0 9.5 44 6.9 SW 22 28 12 15 1015.5 1015.4 0.0
04/05:00pm 22.3 17.4 8.4 41 7.3 WSW 24 30 13 16 1015.5 1015.4 0.0
04/04:30pm 23.4 18.5 8.3 38 8.0 WSW 24 32 13 17 1015.5 1015.4 0.0
04/04:00pm 23.0 17.9 7.5 37 8.1 WSW 24 32 13 17 1015.6 1015.5 0.0
04/03:30pm 23.4 18.8 8.3 38 8.0 WSW 22 37 12 20 1015.7 1015.6 0.0
04/03:00pm 23.1 18.7 7.6 37 8.1 WSW 20 28 11 15 1015.9 1015.8 0.0
04/02:30pm 21.7 16.4 6.8 38 7.6 W 24 33 13 18 1016.3 1016.2 0.0
04/02:00pm 21.3 16.1 7.2 40 7.2 WSW 24 32 13 17 1016.5 1016.4 0.0
04/01:30pm 21.1 16.3 7.3 41 7.1 WSW 22 35 12 19 1016.7 1016.6 0.0
04/01:00pm 20.3 16.4 8.6 47 6.1 W 19 28 10 15 1017.2 1017.1 0.0
04/12:30pm 19.4 15.4 8.4 49 5.7 WSW 19 28 10 15 1017.5 1017.4 0.0
04/12:00pm 18.5 14.6 8.5 52 5.2 W 19 28 10 15 1017.7 1017.6 0.0
04/11:30am 18.3 14.1 8.3 52 5.1 WSW 20 32 11 17 1017.7 1017.6 0.0
04/11:00am 17.8 13.9 8.6 55 4.7 WSW 19 28 10 15 1017.9 1017.8 0.0
04/10:30am 17.3 13.7 8.4 56 4.5 WSW 17 28 9 15 1018.0 1017.9 0.0
04/10:00am 17.0 14.2 8.4 57 4.4 W 13 24 7 13 1018.0 1017.9 0.0
04/09:30am 16.5 12.4 8.5 59 4.1 W 20 26 11 14 1018.1 1018.0 0.0
04/09:00am 16.5 12.5 9.0 61 3.9 W 20 26 11 14 1018.4 1018.3 0.0
04/08:30am 15.9 12.0 8.6 62 3.7 W 19 28 10 15 1018.2 1018.1 0.0
04/08:00am 15.5 11.3 8.3 62 3.6 W 20 26 11 14 1018.0 1017.9 0.0
04/07:30am 15.3 11.2 8.5 64 3.4 WNW 20 24 11 13 1017.6 1017.5 0.0
04/07:00am 15.0 11.1 8.7 66 3.2 W 19 24 10 13 1017.3 1017.2 0.0
04/06:30am 14.9 11.3 8.2 64 3.4 W 17 22 9 12 1017.1 1017.0 0.0
04/06:00am 14.8 10.7 8.5 66 3.2 W 20 24 11 13 1016.9 1016.8 0.0
04/05:30am 14.5 10.4 7.8 64 3.3 W 19 22 10 12 1016.6 1016.5 0.0
04/05:00am 14.9 10.8 8.6 66 3.2 W 20 26 11 14 1016.4 1016.3 0.0
04/04:30am 14.9 11.3 8.4 65 3.3 WSW 17 19 9 10 1016.3 1016.2 0.0
04/04:00am 15.0 10.9 8.5 65 3.3 SW 20 26 11 14 1016.1 1016.0 0.0
04/03:30am 15.0 11.1 8.7 66 3.2 SW 19 24 10 13 1016.2 1016.1 0.0
04/03:00am 15.1 11.2 9.5 69 2.9 WSW 20 24 11 13 1016.3 1016.2 0.0
04/02:30am 15.2 11.0 9.6 69 2.9 WSW 22 28 12 15 1016.3 1016.2 0.0
04/02:00am 15.3 11.7 9.7 69 2.9 SW 19 22 10 12 1016.4 1016.3 0.0
04/01:30am 15.3 11.2 10.1 71 2.7 SW 22 28 12 15 1016.7 1016.6 0.0
04/01:00am 15.5 11.1 10.5 72 2.6 WSW 24 30 13 16 1016.8 1016.7 0.0
04/12:30am 15.7 11.3 10.5 71 2.7 SW 24 30 13 16 1016.7 1016.6 0.0
04/12:00am 15.8 11.5 10.8 72 2.7 WSW 24 32 13 17 1016.8 1016.7 0.0
 
Date/Time
CDT
Temp
°C
App
Temp
°C
Dew
Point
°C
Rel
Hum
%
Delta-T
°C
Wind Press
QNH
hPa
Press
MSL
hPa
Rain since
9am
mm
Dir  Spd
km/h
Gust
km/h
Spd
kts
Gust
kts
03/11:30pm 15.8 11.5 10.8 72 2.7 WSW 24 28 13 15 1017.0 1016.9 0.0
03/11:00pm 15.8 11.1 10.6 71 2.8 WSW 26 32 14 17 1017.1 1017.0 0.0
03/10:30pm 15.8 10.7 10.6 71 2.8 SW 28 35 15 19 1017.1 1017.0 0.0
03/10:00pm 15.7 11.1 11.1 74 2.5 SW 26 32 14 17 1017.0 1016.9 0.0
03/09:30pm 15.7 11.0 10.7 72 2.6 SW 26 32 14 17 1016.8 1016.7 0.0

Latest Capital City Observations: Canberra | Sydney | Melbourne | Brisbane | Adelaide | Perth | Hobart | Darwin

Other formats

Comma delimited format used in spreadsheet applications
http://www.bom.gov.au/fwo/IDS60901/IDS60901.95676.axf

JavaScript Object Notation format (JSON) in row-major order
http://www.bom.gov.au/fwo/IDS60901/IDS60901.95676.json

Data quality

Most of these data are generated automatically and are frequently updated. Quality checks on data are not normally performed. It is possible for incorrect values to appear. Refer to information at About Latest Weather Observations and please check the disclaimer before using these data.